Time;durP1;ratioP1;P1;durP2;ratioP2;P2;SDS_P1;SDS_P2;PMS_P1;PMS_P2;Temp;Humidity;BMP_temperature;BMP_pressure;BME280_temperature;BME280_humidity;BME280_pressure;Samples;Min_cycle;Max_cycle;Signal;HPM_P1;HPM_P2
2024/02/15 00:00:07;;;;;;;1.88;0.80;;;;;;;10.87;100.00;99538.78;4961725;28;20051;-62
2024/02/15 00:02:35;;;;;;;1.30;0.60;;;;;;;10.88;100.00;99547.91;4966501;28;20794;-59
2024/02/15 00:05:02;;;;;;;0.98;0.68;;;;;;;10.88;100.00;99559.75;4962211;28;20054;-59
2024/02/15 00:07:30;;;;;;;0.73;0.60;;;;;;;10.91;100.00;99561.78;4964722;28;20047;-59
2024/02/15 00:09:58;;;;;;;1.30;0.55;;;;;;;10.92;100.00;99557.03;4962352;28;20059;-59
2024/02/15 00:12:26;;;;;;;0.82;0.52;;;;;;;10.93;100.00;99564.19;4957000;28;20425;-58
2024/02/15 00:14:54;;;;;;;0.68;0.57;;;;;;;10.93;100.00;99570.50;4969327;28;20062;-58
2024/02/15 00:17:21;;;;;;;1.77;0.32;;;;;;;10.95;100.00;99579.25;4952303;28;20057;-59
2024/02/15 00:19:49;;;;;;;1.92;0.60;;;;;;;10.97;100.00;99576.09;4968215;28;20050;-59
2024/02/15 00:22:16;;;;;;;0.47;0.45;;;;;;;11.01;100.00;99588.03;4959990;28;20039;-59
2024/02/15 00:24:45;;;;;;;0.68;0.47;;;;;;;11.04;100.00;99587.25;4968282;28;20057;-57
2024/02/15 00:27:12;;;;;;;1.60;0.50;;;;;;;11.06;100.00;99590.47;4960999;28;20521;-58
2024/02/15 00:29:40;;;;;;;0.85;0.50;;;;;;;11.08;100.00;99581.75;4961547;28;20472;-59
2024/02/15 00:32:08;;;;;;;0.40;0.40;;;;;;;11.11;100.00;99586.56;4958319;28;20058;-59
2024/02/15 00:34:38;;;;;;;3.83;0.82;;;;;;;11.12;100.00;99582.63;4965340;28;20153;-59
2024/02/15 00:37:06;;;;;;;0.88;0.85;;;;;;;11.14;100.00;99581.06;4968356;28;20066;-58
2024/02/15 00:39:33;;;;;;;0.55;0.40;;;;;;;11.13;100.00;99579.47;4969017;28;20051;-58
2024/02/15 00:42:00;;;;;;;5.03;0.95;;;;;;;11.16;100.00;99572.38;4969133;28;20043;-58
2024/02/15 00:44:28;;;;;;;0.60;0.35;;;;;;;11.16;100.00;99584.25;4968456;28;20054;-58
2024/02/15 00:46:56;;;;;;;0.60;0.30;;;;;;;11.17;100.00;99580.31;4969436;28;20421;-58
2024/02/15 00:49:23;;;;;;;1.13;0.40;;;;;;;11.17;100.00;99577.53;4967741;28;20183;-58
2024/02/15 00:51:51;;;;;;;1.35;0.40;;;;;;;11.19;100.00;99577.16;4968864;28;20050;-59
2024/02/15 00:54:18;;;;;;;0.68;0.40;;;;;;;11.21;100.00;99589.44;4968852;28;20042;-59
2024/02/15 00:56:46;;;;;;;1.45;0.43;;;;;;;11.23;100.00;99594.59;4967574;28;20051;-59
2024/02/15 00:59:13;;;;;;;3.22;0.75;;;;;;;11.25;100.00;99581.97;4968759;28;20572;-58
2024/02/15 01:01:40;;;;;;;1.52;0.30;;;;;;;11.26;100.00;99582.78;4968102;28;20073;-59
2024/02/15 01:04:08;;;;;;;0.55;0.55;;;;;;;11.26;100.00;99577.22;4967735;28;20055;-58
2024/02/15 01:06:36;;;;;;;0.55;0.40;;;;;;;11.28;100.00;99581.22;4951187;28;20050;-59
2024/02/15 01:09:03;;;;;;;0.47;0.20;;;;;;;11.29;100.00;99568.16;4968055;28;20603;-59
2024/02/15 01:11:35;;;;;;;1.20;0.50;;;;;;;11.29;100.00;99579.25;4968066;28;20085;-56
2024/02/15 01:14:03;;;;;;;1.55;0.50;;;;;;;11.29;100.00;99590.34;4950691;28;20049;-58
2024/02/15 01:16:30;;;;;;;0.65;0.40;;;;;;;11.27;100.00;99596.25;4967871;28;20042;-58
2024/02/15 01:18:58;;;;;;;0.70;0.55;;;;;;;11.27;100.00;99585.19;4968166;28;20085;-58
2024/02/15 01:21:25;;;;;;;1.98;0.50;;;;;;;11.27;100.00;99590.72;4967860;28;20081;-61
2024/02/15 01:23:53;;;;;;;1.48;0.50;;;;;;;11.27;100.00;99596.25;4954835;28;20042;-58
2024/02/15 01:26:21;;;;;;;0.63;0.30;;;;;;;11.26;100.00;99586.34;4967016;28;20109;-59
2024/02/15 01:28:48;;;;;;;1.33;0.47;;;;;;;11.26;100.00;99583.56;4968350;28;20054;-59
2024/02/15 01:31:16;;;;;;;0.70;0.50;;;;;;;11.24;100.00;99591.47;4968346;28;20061;-59
2024/02/15 01:33:47;;;;;;;3.20;0.70;;;;;;;11.24;100.00;99585.94;4966674;28;20386;-59
2024/02/15 01:36:17;;;;;;;3.55;0.95;;;;;;;11.22;100.00;99582.75;4967405;28;20055;-58
2024/02/15 01:38:44;;;;;;;2.47;0.70;;;;;;;11.21;100.00;99581.16;4967553;28;20051;-57
2024/02/15 01:41:12;;;;;;;7.35;1.10;;;;;;;11.20;100.00;99578.75;4967789;28;20045;-58
2024/02/15 01:43:49;;;;;;;5.78;0.90;;;;;;;11.21;100.00;99575.59;4967940;28;20058;-59
2024/02/15 01:46:17;;;;;;;2.83;1.02;;;;;;;11.21;100.00;99580.34;4967232;28;20046;-58
2024/02/15 01:48:45;;;;;;;6.00;1.30;;;;;;;11.20;100.00;99571.22;4967905;28;20046;-59
2024/02/15 01:51:15;;;;;;;2.28;1.30;;;;;;;11.19;100.00;99569.66;4967665;28;20043;-59
2024/02/15 01:53:44;;;;;;;6.75;2.17;;;;;;;11.19;100.00;99572.41;4950612;28;20059;-59
2024/02/15 01:56:14;;;;;;;5.22;1.65;;;;;;;11.20;100.00;99568.47;4967601;28;20536;-57
2024/02/15 01:58:42;;;;;;;7.63;2.17;;;;;;;11.20;100.00;99568.47;4967948;28;20062;-60
2024/02/15 02:01:11;;;;;;;6.53;1.77;;;;;;;11.20;100.00;99565.69;4967130;28;20094;-58
2024/02/15 02:03:39;;;;;;;5.95;1.83;;;;;;;11.21;100.00;99566.50;4967815;28;20055;-60
2024/02/15 02:06:07;;;;;;;4.18;1.65;;;;;;;11.19;100.00;99564.09;4966283;28;20074;-58
2024/02/15 02:08:35;;;;;;;7.53;2.08;;;;;;;11.20;100.00;99571.22;4967707;28;20057;-59
2024/02/15 02:11:03;;;;;;;6.15;1.65;;;;;;;11.22;100.00;99560.59;4967464;28;20540;-58
2024/02/15 02:13:31;;;;;;;3.97;1.42;;;;;;;11.22;100.00;99566.13;4965791;28;20413;-56
2024/02/15 02:15:59;;;;;;;5.50;1.67;;;;;;;11.21;100.00;99569.25;4967610;28;20085;-60
2024/02/15 02:18:27;;;;;;;4.40;2.17;;;;;;;11.21;100.00;99558.97;4965861;28;20062;-59
2024/02/15 02:20:55;;;;;;;8.27;1.85;;;;;;;11.20;100.00;99557.38;4968079;28;20038;-60
2024/02/15 02:23:26;;;;;;;4.65;1.38;;;;;;;11.21;100.00;99547.91;4965765;28;20050;-59
2024/02/15 02:25:55;;;;;;;5.38;1.60;;;;;;;11.20;100.00;99551.84;4960658;28;20081;-58
2024/02/15 02:28:24;;;;;;;5.00;1.30;;;;;;;11.19;100.00;99546.69;4965212;28;20698;-58
2024/02/15 02:30:53;;;;;;;4.05;1.13;;;;;;;11.18;100.00;99545.88;4967942;28;20051;-58
2024/02/15 02:33:22;;;;;;;8.05;1.85;;;;;;;11.18;100.00;99547.84;4965884;28;20642;-57
2024/02/15 02:35:50;;;;;;;6.15;1.13;;;;;;;11.16;100.00;99542.69;4970721;28;20081;-58
2024/02/15 02:38:18;;;;;;;5.25;1.42;;;;;;;11.14;100.00;99539.53;4969976;28;20054;-57
2024/02/15 02:40:46;;;;;;;3.08;1.15;;;;;;;11.14;100.00;99545.06;4964717;28;20051;-58
2024/02/15 02:43:14;;;;;;;9.65;1.63;;;;;;;11.14;100.00;99542.28;4970816;28;20076;-56
2024/02/15 02:45:42;;;;;;;7.72;1.30;;;;;;;11.13;100.00;99537.09;4953252;28;20049;-60
2024/02/15 02:48:10;;;;;;;4.55;1.13;;;;;;;11.12;100.00;99539.06;4971199;28;20414;-60
2024/02/15 02:50:38;;;;;;;4.25;1.88;;;;;;;11.12;100.00;99539.06;4970522;28;20513;-60
2024/02/15 02:53:05;;;;;;;3.83;0.80;;;;;;;11.11;100.00;99534.72;4970600;28;20050;-60
2024/02/15 02:55:32;;;;;;;2.45;1.10;;;;;;;11.11;100.00;99529.19;4969252;28;20062;-59
2024/02/15 02:58:00;;;;;;;3.92;0.77;;;;;;;11.10;100.00;99527.59;4970871;28;20139;-59
2024/02/15 03:02:56;;;;;;;1.50;0.52;;;;;;;11.09;100.00;99516.91;4921640;22;20089;-59
2024/02/15 03:05:24;;;;;;;3.00;0.90;;;;;;;11.08;100.00;99510.56;5011291;28;20049;-59
2024/02/15 03:07:52;;;;;;;2.10;0.70;;;;;;;11.08;100.00;99513.31;5011102;28;20068;-62
2024/02/15 03:10:19;;;;;;;3.15;0.93;;;;;;;11.08;100.00;99499.47;5011471;28;20069;-59
2024/02/15 03:12:47;;;;;;;5.18;1.38;;;;;;;11.07;100.00;99497.88;5011582;28;20057;-60
2024/02/15 03:15:16;;;;;;;5.30;0.73;;;;;;;11.07;100.00;99494.31;5010704;28;20045;-58
2024/02/15 03:17:46;;;;;;;0.82;0.68;;;;;;;11.06;100.00;99490.75;5010609;28;20042;-59
2024/02/15 03:20:20;;;;;;;6.65;1.00;;;;;;;11.05;100.00;99477.25;5010321;28;20041;-59
2024/02/15 03:22:59;;;;;;;3.67;0.85;;;;;;;11.04;100.00;99475.69;5010805;28;20054;-57
2024/02/15 03:25:31;;;;;;;3.63;1.60;;;;;;;11.02;100.00;99479.63;5010724;28;20049;-58
2024/02/15 03:28:03;;;;;;;2.97;1.27;;;;;;;11.01;100.00;99474.47;5012077;28;20044;-58
2024/02/15 03:30:31;;;;;;;;;;;;;;;10.98;100.00;99466.91;5011085;28;20057;-58
2024/02/15 03:32:58;;;;;;;6.47;1.88;;;;;;;10.97;100.00;99459.78;5010541;28;19926;-57
2024/02/15 03:35:28;;;;;;;2.63;1.50;;;;;;;10.96;100.00;99466.50;5010757;28;20053;-53
2024/02/15 03:37:56;;;;;;;3.63;1.52;;;;;;;10.96;100.00;99458.97;5009820;28;20049;-55
2024/02/15 03:40:26;;;;;;;3.42;1.08;;;;;;;10.96;100.00;99453.44;5010032;28;20053;-57
2024/02/15 03:42:54;;;;;;;6.03;1.00;;;;;;;10.97;100.00;99459.78;5009859;28;20046;-57
2024/02/15 03:45:24;;;;;;;4.60;1.40;;;;;;;10.97;100.00;99449.50;5009615;28;20061;-57
2024/02/15 03:47:53;;;;;;;3.60;1.17;;;;;;;10.98;100.00;99442.00;5010331;28;20037;-58
2024/02/15 03:50:21;;;;;;;2.63;0.93;;;;;;;10.95;100.00;99439.97;5010148;28;20054;-58
2024/02/15 03:52:50;;;;;;;5.30;1.23;;;;;;;10.93;100.00;99437.56;5010167;28;20041;-58
2024/02/15 03:55:18;;;;;;;3.88;1.52;;;;;;;10.92;100.00;99432.44;5010033;28;20060;-57
2024/02/15 03:57:46;;;;;;;7.93;2.10;;;;;;;10.86;100.00;99436.72;5009687;28;20168;-57
2024/02/15 04:00:15;;;;;;;10.32;2.72;;;;;;;10.81;100.00;99434.28;5010347;28;20061;-55
2024/02/15 04:02:43;;;;;;;17.42;2.42;;;;;;;10.76;100.00;99424.34;5009480;28;20057;-55
2024/02/15 04:05:11;;;;;;;12.85;3.15;;;;;;;10.70;100.00;99413.97;5009902;28;20054;-57
2024/02/15 04:07:40;;;;;;;20.77;3.13;;;;;;;10.66;100.00;99410.38;4997367;28;20057;-57
2024/02/15 04:10:08;;;;;;;12.55;2.70;;;;;;;10.62;100.00;99406.75;5009378;28;20045;-56
2024/02/15 04:12:36;;;;;;;18.58;3.60;;;;;;;10.58;100.00;99403.19;5009406;28;20403;-56
2024/02/15 04:15:11;;;;;;;8.18;2.80;;;;;;;10.55;100.00;99398.38;5010077;28;20130;-55
2024/02/15 04:17:42;;;;;;;12.82;3.05;;;;;;;10.53;100.00;99403.50;5009979;28;20400;-58
2024/02/15 04:20:11;;;;;;;16.35;3.35;;;;;;;10.51;100.00;99392.03;5009174;28;20057;-58
2024/02/15 04:22:42;;;;;;;16.23;3.78;;;;;;;10.49;100.00;99399.88;5009631;28;20133;-59
2024/02/15 04:25:10;;;;;;;11.20;4.18;;;;;;;10.46;100.00;99395.91;5009308;28;20046;-59
2024/02/15 04:27:38;;;;;;;19.55;4.35;;;;;;;10.43;100.00;99396.69;5009377;28;20054;-60
2024/02/15 04:30:07;;;;;;;13.57;4.38;;;;;;;10.40;100.00;99391.91;5009309;28;20137;-59
2024/02/15 04:32:36;;;;;;;9.93;3.67;;;;;;;10.41;100.00;99387.94;5009808;28;20050;-61
2024/02/15 04:35:05;;;;;;;13.40;4.35;;;;;;;10.38;100.00;99383.16;5008961;28;20057;-61
2024/02/15 04:37:37;;;;;;;10.23;4.15;;;;;;;10.36;100.00;99366.94;5008785;28;20049;-62
2024/02/15 04:40:09;;;;;;;13.25;4.15;;;;;;;10.37;100.00;99371.31;5008959;28;20058;-59
2024/02/15 04:42:43;;;;;;;14.13;4.18;;;;;;;10.37;100.00;99370.53;5009302;28;20041;-61
2024/02/15 04:45:13;;;;;;;15.18;5.38;;;;;;;10.37;100.00;99374.09;5009124;28;20084;-58
2024/02/15 04:47:45;;;;;;;10.25;3.63;;;;;;;10.36;100.00;99380.78;5008942;28;20404;-60
2024/02/15 04:50:15;;;;;;;6.28;2.90;;;;;;;10.34;100.00;99361.00;5009470;28;20143;-57
2024/02/15 04:52:45;;;;;;;16.08;3.20;;;;;;;10.34;100.00;99366.53;5007279;28;20394;-58
2024/02/15 04:55:12;;;;;;;9.48;2.40;;;;;;;10.33;100.00;99359.41;5009089;28;20045;-59
2024/02/15 04:57:40;;;;;;;14.95;2.83;;;;;;;10.32;100.00;99362.56;5008459;28;20034;-59
2024/02/15 05:00:11;;;;;;;13.60;2.90;;;;;;;10.31;100.00;99345.16;5008731;28;20077;-59
2024/02/15 05:02:43;;;;;;;10.98;3.38;;;;;;;10.31;100.00;99356.22;5007157;28;20076;-59
2024/02/15 05:05:12;;;;;;;11.38;3.88;;;;;;;10.32;100.00;99357.81;5008789;28;20053;-60
2024/02/15 05:07:42;;;;;;;6.57;3.50;;;;;;;10.30;100.00;99349.09;4996363;28;20057;-57
2024/02/15 05:10:10;;;;;;;4.97;2.03;;;;;;;10.29;100.00;99346.72;5008727;28;20507;-59
2024/02/15 05:12:39;;;;;;;5.20;2.38;;;;;;;10.31;100.00;99358.19;5008661;28;20049;-60
2024/02/15 05:15:10;;;;;;;9.27;1.92;;;;;;;10.27;100.00;99349.84;5008343;28;20419;-59
2024/02/15 05:17:40;;;;;;;11.30;1.80;;;;;;;10.27;100.00;99344.31;5008709;28;20060;-59
2024/02/15 05:20:11;;;;;;;10.38;1.85;;;;;;;10.23;100.00;99335.19;5003575;28;20081;-59
2024/02/15 05:22:43;;;;;;;3.35;1.60;;;;;;;10.21;100.00;99323.72;5008462;28;20047;-61
2024/02/15 05:25:15;;;;;;;2.92;1.20;;;;;;;10.22;100.00;99330.00;5008762;28;20060;-60
2024/02/15 05:27:44;;;;;;;5.78;1.35;;;;;;;10.23;100.00;99335.19;5008291;28;20064;-59
2024/02/15 05:30:12;;;;;;;3.13;1.73;;;;;;;10.23;100.00;99323.31;5008066;28;20046;-60
2024/02/15 05:32:43;;;;;;;10.45;3.15;;;;;;;10.22;100.00;99316.97;5008059;28;20042;-59
2024/02/15 05:35:11;;;;;;;4.13;1.33;;;;;;;10.22;100.00;99322.50;5008421;28;20046;-59
2024/02/15 05:37:38;;;;;;;3.88;1.38;;;;;;;10.22;100.00;99330.81;5008223;28;20054;-59
2024/02/15 05:40:14;;;;;;;5.40;1.35;;;;;;;10.19;100.00;99322.50;5008507;28;21017;-59
2024/02/15 05:42:45;;;;;;;4.20;1.60;;;;;;;10.18;100.00;99310.63;5007701;28;20049;-59
2024/02/15 05:45:25;;;;;;;5.75;1.42;;;;;;;10.19;100.00;99308.66;5008337;28;20053;-60
2024/02/15 05:47:53;;;;;;;6.28;1.30;;;;;;;10.18;100.00;99307.88;5006464;28;20490;-60
2024/02/15 05:50:21;;;;;;;6.38;1.80;;;;;;;10.20;100.00;99311.03;5007038;28;20061;-58
2024/02/15 05:52:48;;;;;;;7.30;1.50;;;;;;;10.21;100.00;99309.06;5007812;28;20054;-59
2024/02/15 05:55:16;;;;;;;7.63;1.60;;;;;;;10.21;100.00;99318.19;5007986;28;20050;-60
2024/02/15 05:57:45;;;;;;;7.22;1.73;;;;;;;10.21;100.00;99328.44;5007882;28;20057;-59
2024/02/15 06:00:13;;;;;;;4.63;1.60;;;;;;;10.22;100.00;99319.75;5007440;28;20046;-59
2024/02/15 06:02:49;;;;;;;8.80;2.42;;;;;;;10.20;100.00;99313.81;5007710;28;20061;-60
2024/02/15 06:05:18;;;;;;;3.88;1.92;;;;;;;10.20;100.00;99316.56;5007787;28;20053;-58
2024/02/15 06:07:46;;;;;;;4.70;1.50;;;;;;;10.18;100.00;99313.41;5008089;28;20042;-56
2024/02/15 06:10:14;;;;;;;5.70;1.60;;;;;;;10.19;100.00;99303.13;5010590;28;20042;-57
2024/02/15 06:12:43;;;;;;;5.15;1.75;;;;;;;10.18;100.00;99304.28;5011085;28;20058;-59
2024/02/15 06:15:20;;;;;;;7.95;2.47;;;;;;;10.17;100.00;99303.50;5012093;28;20057;-57
2024/02/15 06:17:49;;;;;;;4.07;1.98;;;;;;;10.18;100.00;99290.47;5011561;28;20058;-58
2024/02/15 06:20:23;;;;;;;7.68;2.25;;;;;;;10.18;100.00;99284.94;5011537;28;20068;-57
2024/02/15 06:22:51;;;;;;;7.10;2.45;;;;;;;10.15;100.00;99286.50;5011753;28;20057;-58
2024/02/15 06:25:20;;;;;;;7.13;2.70;;;;;;;10.16;100.00;99287.28;5011129;28;20046;-55
2024/02/15 06:27:51;;;;;;;9.05;2.08;;;;;;;10.14;100.00;99293.19;5010981;28;20073;-56
2024/02/15 06:41:23;;;;;;;5.10;2.30;;;;;;;10.08;100.00;99278.09;5011833;28;20041;-55
2024/02/15 06:43:53;;;;;;;7.45;2.90;;;;;;;10.09;100.00;99285.19;5012324;28;20133;-55
2024/02/15 06:46:21;;;;;;;4.38;2.70;;;;;;;10.11;100.00;99277.31;5011450;28;20427;-57
2024/02/15 06:48:48;;;;;;;5.60;3.25;;;;;;;10.10;100.00;99281.28;5012023;28;20522;-57
2024/02/15 06:51:16;;;;;;;9.70;3.40;;;;;;;10.11;100.00;99274.53;5010820;28;20054;-56
2024/02/15 06:53:43;;;;;;;6.32;3.00;;;;;;;10.12;100.00;99267.06;5011744;28;20052;-57
2024/02/15 06:56:11;;;;;;;11.95;4.50;;;;;;;10.14;100.00;99262.75;5011237;28;20060;-56
2024/02/15 06:58:42;;;;;;;13.43;5.45;;;;;;;10.15;100.00;99264.38;5011563;28;20061;-57
2024/02/15 07:01:13;;;;;;;20.33;10.23;;;;;;;10.17;100.00;99261.22;5011898;28;20065;-53
2024/02/15 07:03:41;;;;;;;22.63;10.00;;;;;;;10.17;100.00;99264.78;5011586;28;20050;-56
2024/02/15 07:06:08;;;;;;;18.10;9.18;;;;;;;10.20;100.00;99272.31;5011160;28;20038;-55
2024/02/15 07:08:35;;;;;;;16.67;9.27;;;;;;;10.21;100.00;99268.38;5011431;28;20061;-53
2024/02/15 07:11:03;;;;;;;20.88;9.60;;;;;;;10.23;100.00;99265.22;5011017;28;20407;-57
2024/02/15 07:13:31;;;;;;;21.60;10.20;;;;;;;10.24;100.00;99273.16;5011695;28;20384;-55
2024/02/15 07:15:59;;;;;;;22.20;11.43;;;;;;;10.25;100.00;99268.41;5011926;28;20034;-57
2024/02/15 07:18:27;;;;;;;22.77;11.30;;;;;;;10.26;100.00;99270.00;5010655;28;20061;-57
2024/02/15 07:20:59;;;;;;;19.50;9.88;;;;;;;10.27;100.00;99268.84;5009951;28;20039;-56
2024/02/15 07:23:27;;;;;;;31.02;12.43;;;;;;;10.27;100.00;99255.78;5011384;28;20046;-58
2024/02/15 07:25:54;;;;;;;20.65;9.85;;;;;;;10.26;100.00;99248.69;5011079;28;20046;-55
2024/02/15 07:28:22;;;;;;;19.30;8.43;;;;;;;10.27;100.00;99255.03;5010783;28;20061;-58
2024/02/15 07:30:54;;;;;;;6.80;2.47;;;;;;;10.28;100.00;99248.28;5011502;28;20049;-57
2024/02/15 07:33:23;;;;;;;4.35;1.63;;;;;;;10.32;100.00;99241.66;5011313;28;20058;-58
2024/02/15 07:35:51;;;;;;;3.53;1.20;;;;;;;10.35;100.00;99246.41;5009528;28;20061;-58
2024/02/15 07:38:19;;;;;;;11.80;4.75;;;;;;;10.39;100.00;99250.00;5010516;28;20054;-56
2024/02/15 07:40:46;;;;;;;13.68;6.55;;;;;;;10.39;100.00;99258.31;5010937;28;20610;-57
2024/02/15 07:43:14;;;;;;;16.77;8.38;;;;;;;10.38;100.00;99251.16;5010415;28;20503;-58
2024/02/15 07:45:42;;;;;;;29.02;14.95;;;;;;;10.39;100.00;99258.31;5010744;28;20426;-54
2024/02/15 07:48:09;;;;;;;32.20;14.65;;;;;;;10.39;100.00;99251.97;5009979;28;20053;-57
2024/02/15 07:50:37;;;;;;;32.75;15.48;;;;;;;10.39;100.00;99258.31;5010776;28;20053;-58
2024/02/15 07:53:06;;;;;;;36.67;17.52;;;;;;;10.39;100.00;99252.78;4997392;28;20038;-58
2024/02/15 07:55:34;;;;;;;27.20;12.57;;;;;;;10.40;100.00;99259.88;5010341;28;20372;-57
2024/02/15 07:58:01;;;;;;;19.02;9.02;;;;;;;10.40;100.00;99259.88;5010755;28;20046;-56
2024/02/15 08:00:29;;;;;;;19.00;12.93;;;;;;;10.40;100.00;99270.94;5011083;28;20050;-57
2024/02/15 08:02:58;;;;;;;21.15;12.43;;;;;;;10.41;100.00;99266.22;5010792;28;20054;-56
2024/02/15 08:05:26;;;;;;;25.08;14.63;;;;;;;10.39;100.00;99269.38;5010046;28;20054;-54
2024/02/15 08:07:57;;;;;;;15.15;9.25;;;;;;;10.39;100.00;99272.13;5000065;28;20045;-57
2024/02/15 08:10:27;;;;;;;15.77;9.80;;;;;;;10.38;100.00;99267.78;5010495;28;20061;-61
2024/02/15 08:12:57;;;;;;;10.77;6.00;;;;;;;10.40;100.00;99270.16;5010810;28;20042;-57
2024/02/15 08:15:27;;;;;;;7.30;2.72;;;;;;;10.41;100.00;99277.28;5011638;28;20388;-57
2024/02/15 08:17:55;;;;;;;4.85;2.15;;;;;;;10.44;100.00;99273.75;5009545;28;20045;-56
2024/02/15 08:20:23;;;;;;;3.13;2.45;;;;;;;10.46;100.00;99274.16;5011985;28;20037;-57
2024/02/15 08:22:51;;;;;;;3.95;1.85;;;;;;;10.49;100.00;99267.88;5012648;28;20053;-56
2024/02/15 08:25:18;;;;;;;1.58;1.02;;;;;;;10.51;100.00;99270.28;5012889;28;20060;-57
2024/02/15 08:27:51;;;;;;;4.38;0.93;;;;;;;10.55;100.00;99271.09;5013111;28;20046;-56
2024/02/15 08:30:19;;;;;;;2.00;0.60;;;;;;;10.61;100.00;99266.81;5012729;28;20130;-57
2024/02/15 08:32:54;;;;;;;2.42;0.85;;;;;;;10.66;100.00;99266.47;5007290;28;20042;-58
2024/02/15 08:35:22;;;;;;;2.45;1.30;;;;;;;10.69;100.00;99254.63;5012452;28;20042;-56
2024/02/15 08:37:52;;;;;;;2.88;0.85;;;;;;;10.71;100.00;99258.59;5007536;28;20445;-57
2024/02/15 08:40:24;;;;;;;3.13;1.10;;;;;;;10.73;100.00;99260.97;5011952;28;20042;-58
2024/02/15 08:42:52;;;;;;;1.08;0.80;;;;;;;10.76;100.00;99265.75;5005946;28;20046;-58
2024/02/15 08:45:20;;;;;;;1.23;0.77;;;;;;;10.78;100.00;99252.31;5006259;28;20053;-61
2024/02/15 08:47:49;;;;;;;1.67;0.75;;;;;;;10.81;100.00;99257.91;5012358;28;20061;-58
2024/02/15 08:50:17;;;;;;;1.13;0.55;;;;;;;10.83;100.00;99261.06;5012026;28;20068;-57
2024/02/15 08:52:46;;;;;;;0.85;0.60;;;;;;;10.85;100.00;99257.94;5008745;28;20061;-58
2024/02/15 08:55:14;;;;;;;0.77;0.40;;;;;;;10.87;100.00;99261.13;5011676;28;20412;-57
2024/02/15 08:57:43;;;;;;;0.80;0.50;;;;;;;10.90;100.00;99263.13;5010878;28;20408;-57
2024/02/15 09:00:15;;;;;;;0.73;0.50;;;;;;;10.91;100.00;99259.97;5010723;28;20053;-52
2024/02/15 09:02:44;;;;;;;2.10;0.40;;;;;;;10.94;100.00;99255.63;4997101;28;20049;-53
2024/02/15 09:05:14;;;;;;;1.35;0.40;;;;;;;10.96;100.00;99256.81;5009811;28;20050;-52
2024/02/15 09:07:42;;;;;;;1.05;0.68;;;;;;;10.97;100.00;99258.44;5009146;28;20057;-54
2024/02/15 09:10:11;;;;;;;3.38;0.80;;;;;;;11.01;100.00;99262.00;5006253;28;20038;-53
2024/02/15 09:12:42;;;;;;;1.58;0.40;;;;;;;11.04;100.00;99265.22;5004909;28;20049;-56
2024/02/15 09:15:10;;;;;;;1.00;0.60;;;;;;;11.05;100.00;99264.81;5004742;28;20065;-54
2024/02/15 09:17:41;;;;;;;0.52;0.22;;;;;;;11.08;100.00;99275.13;5008551;28;20049;-58
2024/02/15 09:20:18;;;;;;;1.58;0.57;;;;;;;11.10;100.00;99275.53;5008133;28;20065;-52
2024/02/15 09:22:50;;;;;;;1.23;0.47;;;;;;;11.12;100.00;99278.72;5008763;28;20057;-55
2024/02/15 09:25:18;;;;;;;1.55;0.60;;;;;;;11.14;100.00;99283.88;5008069;28;20045;-60
2024/02/15 09:27:46;;;;;;;1.88;0.65;;;;;;;11.15;100.00;99283.47;5008546;28;20057;-59
2024/02/15 09:30:15;;;;;;;4.45;0.98;;;;;;;11.17;100.00;99291.44;4995298;28;20058;-56
2024/02/15 09:32:44;;;;;;;0.25;0.20;;;;;;;11.18;100.00;99288.25;5007080;28;20053;-55
2024/02/15 09:35:13;;;;;;;2.17;0.55;;;;;;;11.20;100.00;99291.44;5006857;28;20045;-59
2024/02/15 09:37:52;;;;;;;2.15;0.63;;;;;;;11.22;100.00;99288.28;4994572;28;20058;-58
2024/02/15 09:40:20;;;;;;;0.80;0.30;;;;;;;11.23;100.00;99293.44;5006998;28;20060;-55
2024/02/15 09:42:47;;;;;;;0.40;0.20;;;;;;;11.25;100.00;99288.31;5006725;28;20272;-58
2024/02/15 09:45:16;;;;;;;1.00;0.30;;;;;;;11.29;100.00;99291.91;4996550;28;20058;-55
2024/02/15 09:47:44;;;;;;;0.20;0.20;;;;;;;11.31;100.00;99289.53;5006476;28;20065;-58
2024/02/15 09:50:17;;;;;;;0.20;0.20;;;;;;;11.34;100.00;99291.53;5007027;28;20049;-54
2024/02/15 09:52:51;;;;;;;0.63;0.35;;;;;;;11.37;100.00;99295.50;5006889;28;20064;-58
2024/02/15 09:55:22;;;;;;;0.38;0.38;;;;;;;11.41;100.00;99283.28;5006442;28;20065;-60
2024/02/15 09:57:51;;;;;;;0.90;0.50;;;;;;;11.45;100.00;99286.88;5007173;28;20045;-59
2024/02/15 10:00:18;;;;;;;0.30;0.30;;;;;;;11.48;100.00;99290.84;5001540;28;20053;-57
2024/02/15 10:02:52;;;;;;;0.75;0.60;;;;;;;11.52;100.00;99292.44;5003831;28;20065;-56
2024/02/15 10:05:21;;;;;;;0.82;0.77;;;;;;;11.57;100.00;99299.59;5006317;28;20057;-57
2024/02/15 10:07:48;;;;;;;1.48;0.45;;;;;;;11.62;100.00;99299.25;4996165;28;20400;-53
2024/02/15 10:10:20;;;;;;;0.95;0.60;;;;;;;11.66;100.00;99310.34;5006796;28;20096;-54
2024/02/15 10:12:51;;;;;;;1.65;0.47;;;;;;;11.69;100.00;99307.63;5006832;28;20071;-55
2024/02/15 10:15:32;;;;;;;0.82;0.35;;;;;;;11.75;100.00;99305.28;5004714;28;20053;-54
2024/02/15 10:18:02;;;;;;;2.50;0.60;;;;;;;11.79;100.00;99323.53;5006480;28;20053;-55
2024/02/15 10:20:31;;;;;;;2.00;0.57;;;;;;;11.83;100.00;99320.78;5005340;28;20049;-57
2024/02/15 10:22:58;;;;;;;1.42;0.70;;;;;;;11.86;100.00;99320.78;5007072;28;20049;-54
2024/02/15 10:25:29;;;;;;;2.35;0.40;;;;;;;11.88;100.00;99320.41;4993592;28;20459;-56
2024/02/15 10:28:07;;;;;;;0.55;0.35;;;;;;;11.90;100.00;99337.47;5005736;28;20050;-58
2024/02/15 10:30:36;;;;;;;0.75;0.30;;;;;;;11.91;100.00;99325.19;5006337;28;20054;-57
2024/02/15 10:33:05;;;;;;;0.77;0.50;;;;;;;11.94;100.00;99339.06;5003526;28;20053;-59
2024/02/15 10:35:36;;;;;;;2.67;0.30;;;;;;;11.97;100.00;99326.38;5003498;28;20045;-58
2024/02/15 10:38:10;;;;;;;1.15;0.45;;;;;;;11.97;100.00;99327.19;5005844;28;20053;-59
2024/02/15 10:40:41;;;;;;;1.02;0.43;;;;;;;12.02;100.00;99320.50;4989885;28;20055;-56
2024/02/15 10:43:13;;;;;;;0.80;0.30;;;;;;;12.06;100.00;99330.41;5004863;28;20084;-57
2024/02/15 10:45:41;;;;;;;;;;;;;;;12.06;100.00;99329.63;5003016;28;20061;-58
2024/02/15 10:48:13;;;;;;;4.10;0.43;;;;;;;12.07;100.00;99334.75;5006022;28;19928;-55
2024/02/15 10:50:41;;;;;;;1.55;0.35;;;;;;;12.09;100.00;99331.63;4998980;28;20050;-57
2024/02/15 10:53:26;;;;;;;0.52;0.30;;;;;;;12.12;100.00;99328.06;5005970;28;20054;-58
2024/02/15 10:55:57;;;;;;;0.65;0.10;;;;;;;12.13;100.00;99338.75;5008330;28;20046;-55
2024/02/15 10:58:31;;;;;;;1.05;0.47;;;;;;;12.16;100.00;99342.72;5010247;28;20605;-56
2024/02/15 11:00:59;;;;;;;0.40;0.30;;;;;;;12.17;100.00;99345.13;5009004;28;20054;-54
2024/02/15 11:03:35;;;;;;;3.10;0.30;;;;;;;12.17;100.00;99341.56;5009930;28;20049;-57
2024/02/15 11:06:07;;;;;;;0.20;0.20;;;;;;;12.16;100.00;99342.72;5009883;28;20050;-54
2024/02/15 11:08:35;;;;;;;;;;;;;;;12.15;100.00;99341.16;5010749;28;20046;-59
2024/02/15 11:11:05;;;;;;;0.10;0.10;;;;;;;12.16;100.00;99348.28;5009579;28;20433;-55
2024/02/15 11:13:33;;;;;;;0.40;0.20;;;;;;;12.15;100.00;99347.47;5000576;28;20045;-58
2024/02/15 11:16:01;;;;;;;1.08;0.30;;;;;;;12.15;100.00;99353.03;5009991;28;20050;-56
2024/02/15 11:18:48;;;;;;;0.60;0.25;;;;;;;12.16;100.00;99349.09;5009474;28;20540;-54
2024/02/15 11:21:53;;;;;;;1.05;0.13;;;;;;;12.18;100.00;99355.03;4991946;28;20045;-57
2024/02/15 11:24:27;;;;;;;0.35;0.20;;;;;;;12.17;100.00;99344.34;5009412;28;20049;-59
2024/02/15 11:27:02;;;;;;;0.25;0.22;;;;;;;12.16;100.00;99351.84;5007312;28;20073;-54
2024/02/15 11:29:54;;;;;;;1.45;0.30;;;;;;;12.13;100.00;99344.31;4992042;28;20443;-56
2024/02/15 11:32:39;;;;;;;3.97;0.20;;;;;;;12.07;100.00;99345.09;5001099;28;20053;-57
2024/02/15 11:35:11;;;;;;;0.45;0.20;;;;;;;12.03;100.00;99339.50;5008789;28;20822;-58
2024/02/15 11:37:55;;;;;;;1.75;0.20;;;;;;;12.07;100.00;99340.31;5002411;28;20349;-54
2024/02/15 11:40:51;;;;;;;0.20;0.20;;;;;;;12.15;100.00;99341.16;4999320;28;20045;-57
2024/02/15 11:43:50;;;;;;;1.52;0.28;;;;;;;12.32;100.00;99348.75;5009020;28;20424;-53
2024/02/15 11:46:21;;;;;;;0.88;0.20;;;;;;;12.43;100.00;99346.81;5008874;28;20041;-54
2024/02/15 11:48:49;;;;;;;0.80;0.40;;;;;;;12.50;100.00;99341.28;5009490;28;20054;-54